Aeroporto :
LOGIN :

Iscrizione | Disclaimer

   EN    FR    IT 

 










Sommario :    VFR   VFR Marginale   IFR   IFR Intensivo   IFR Molto Intensivo
Visibilità : 
Base nubi : 
>= 8 km
>= 3000ft
5 / 8 km
1000 / 3000 ft
1500m / 5 km
500 / 1000 ft
800 / 1500m
200 / 500 ft
< 800m
< 200 ft
Simboli :   Temporali  Nebbia  Neve Forte  Precipitazioni Forti  Vento > 20 kt
SIGMETs :   Varie  Temporali  Ghiacco  Turbolenza  Onda orograficha  Ceneri Vulcaniche







- Altitudine del aeroporto : 1 ft
- Carte del aeroporto


EGCK - Caernarfon

ULTIMO METAR :
  • 162020Z AUTO 20023G33KT 6000 -RA BKN002/// BKN012/// OVC026/// 13/12 Q1010 RERA

METARs OBSOLETI :
  • 161950Z AUTO 19021G31KT 9999 -RA FEW003/// BKN012/// BKN024/// 14/12 Q1010
  • 161920Z AUTO 19023G35KT 9999 -RA FEW002/// BKN013/// OVC039/// 14/12 Q1010
  • 161850Z AUTO 20022G33KT 9999 BKN012/// OVC026/// 14/12 Q1010
  • 161820Z AUTO 20019G32KT 180V240 9999 -RA OVC005/// 14/12 Q1010
  • 161750Z AUTO 20016G28KT 9999 FEW002/// OVC006/// 14/13 Q1010 RERA
  • 161720Z AUTO 21017G27KT 9999 -RA SCT002/// OVC009/// 14/12 Q1010 RERA

TAF AMD TAF EGCK
Valido dal 16 a 21 ore il 17 a 06 ore UTC


162025Z 1621/1706 19015KT 9999 SCT020
TEMPO 1621/1701 21018G28KT 7000 SHRA BKN010
PROB30
TEMPO 1621/1624 22028G38KT 3000 +SHRA BKN002
Nessun NOTAM noto per questo aeroporto.
1 SIGMET conosciuto per la FIR London (EGTT) :
 
Forte onda orograficha
EGTT SIGMET 01 VALID 162010/162330 EGRR
EGTT LONDON FIR SEV MTW FCST WI N5444 W00114 - N5306 W00010 - N5156 W00445 - N5438 W00305 - N5444 W00114 FL030/180 STNR NC=



MetMap, La meteo Aeronautica in un colpo d'occhio ! - Copyright ORBIFLY Dicembre 2007 - Disclaimer

ORBIFLY MET'MAP TEAM :

Programmazione e sviluppo : Alexandra Zaïnal
Concezione e sviluppo : Baudouin d'Aumeries
Co-Programmazione e sviluppo : Marc-Olivier Méhu
Supporto tecnico e logistico : Manuel Goepfert
Aiuto per la traduzione : Arnaldo La Scala

Contatto : metmap@orbifly.com




FONTI E CREDITI :

   NOAA